createdAt,value
2022-08-05T00:45:53.679Z,17.07
2022-08-05T00:47:31.788Z,17.10
2022-08-05T00:49:20.733Z,17.08
2022-08-05T00:50:53.221Z,17.08
2022-08-05T00:52:28.598Z,17.06
2022-08-05T00:54:02.591Z,16.99
2022-08-05T00:55:42.811Z,16.97
2022-08-05T00:57:15.846Z,16.91
2022-08-05T00:58:53.694Z,16.90
2022-08-05T01:00:26.306Z,16.89
2022-08-05T01:01:58.342Z,16.88
2022-08-05T01:03:33.328Z,16.84
2022-08-05T01:05:10.054Z,16.82
2022-08-05T01:06:43.695Z,16.81
2022-08-05T01:08:40.662Z,16.77
2022-08-05T01:10:14.509Z,16.74
2022-08-05T01:11:49.437Z,16.75
2022-08-05T01:14:08.871Z,16.75
2022-08-05T01:15:47.876Z,16.74
2022-08-05T01:17:27.901Z,16.70
2022-08-05T01:19:12.133Z,16.69
2022-08-05T01:21:37.918Z,16.67
2022-08-05T01:23:42.474Z,16.65
2022-08-05T01:25:40.057Z,16.64
2022-08-05T01:27:50.853Z,16.64
2022-08-05T01:29:34.952Z,16.62
2022-08-05T01:31:12.862Z,16.57
2022-08-05T01:32:46.021Z,16.51
2022-08-05T01:34:28.798Z,16.55
2022-08-05T01:36:02.057Z,16.54
2022-08-05T01:37:46.860Z,16.51
2022-08-05T01:39:46.371Z,16.44
2022-08-05T01:41:11.868Z,16.36
2022-08-05T01:42:47.567Z,16.33
2022-08-05T01:44:20.147Z,16.28
2022-08-05T01:45:57.204Z,16.23
2022-08-05T01:47:39.631Z,16.17
2022-08-05T01:49:23.777Z,16.16
2022-08-05T01:50:57.286Z,16.14
2022-08-05T01:52:34.922Z,16.11
2022-08-05T01:54:09.848Z,16.10
2022-08-05T01:55:44.510Z,16.10
2022-08-05T01:58:09.488Z,16.08
2022-08-05T01:59:14.401Z,16.04
2022-08-05T02:00:51.031Z,16.06
2022-08-05T02:02:28.423Z,16.07
2022-08-05T02:04:01.482Z,16.07
2022-08-05T02:05:35.935Z,16.06
2022-08-05T02:07:08.747Z,16.06
2022-08-05T02:08:44.887Z,16.06
2022-08-05T02:10:28.708Z,16.02
2022-08-05T02:12:18.180Z,16.01
2022-08-05T02:14:12.900Z,15.99
2022-08-05T02:15:51.593Z,15.97
2022-08-05T02:18:31.093Z,15.92
2022-08-05T02:19:47.446Z,15.94
2022-08-05T02:21:23.152Z,15.94
2022-08-05T02:23:00.684Z,15.89
2022-08-05T02:24:37.884Z,15.90
2022-08-05T02:26:11.743Z,15.96
2022-08-05T02:27:58.479Z,15.99
2022-08-05T02:29:58.810Z,15.98
2022-08-05T02:31:34.823Z,15.98
2022-08-05T02:33:08.894Z,15.96
2022-08-05T02:34:44.318Z,15.98
2022-08-05T02:36:31.353Z,15.98
2022-08-05T02:38:04.618Z,16.02
2022-08-05T02:39:41.298Z,16.07
2022-08-05T02:41:17.125Z,16.11
2022-08-05T02:42:52.786Z,16.08
2022-08-05T02:44:26.675Z,16.06
2022-08-05T02:45:59.307Z,16.03
2022-08-05T02:47:58.427Z,16.03
2022-08-05T02:49:36.959Z,16.01
2022-08-05T02:51:10.385Z,16.01
2022-08-05T02:52:42.828Z,15.99
2022-08-05T02:54:34.765Z,15.97
2022-08-05T02:56:09.584Z,15.98
2022-08-05T02:58:09.654Z,15.97
2022-08-05T02:59:50.302Z,15.99
2022-08-05T03:01:25.888Z,16.04
2022-08-05T03:02:59.471Z,16.06
2022-08-05T03:04:32.022Z,16.08
2022-08-05T03:06:54.362Z,16.10
2022-08-05T03:08:07.097Z,16.14
2022-08-05T03:09:43.877Z,16.20
2022-08-05T03:11:56.316Z,16.22
2022-08-05T03:13:18.713Z,16.19
2022-08-05T03:15:00.025Z,16.15
2022-08-05T03:16:32.261Z,16.12
2022-08-05T03:18:04.487Z,16.12
2022-08-05T03:19:39.774Z,16.11
2022-08-05T03:21:14.245Z,16.09
2022-08-05T03:22:46.882Z,16.09
2022-08-05T03:24:29.522Z,16.08
2022-08-05T03:26:30.222Z,16.10
2022-08-05T03:28:00.174Z,16.10
2022-08-05T03:29:44.507Z,16.10
2022-08-05T03:31:41.496Z,16.10
2022-08-05T03:33:09.421Z,16.10
2022-08-05T03:34:50.392Z,16.11
2022-08-05T03:36:30.463Z,16.11
2022-08-05T03:38:03.249Z,16.11
2022-08-05T03:39:57.642Z,16.11
2022-08-05T03:41:33.188Z,16.14
2022-08-05T03:44:08.335Z,16.18
2022-08-05T03:45:21.151Z,16.22
2022-08-05T03:46:54.970Z,16.25
2022-08-05T03:48:30.468Z,16.29
2022-08-05T03:50:07.634Z,16.32
2022-08-05T03:52:39.332Z,16.43
2022-08-05T03:55:50.017Z,16.49
2022-08-05T03:56:05.756Z,16.60
2022-08-05T03:57:44.343Z,16.68
2022-08-05T03:59:29.212Z,16.77
2022-08-05T04:01:22.346Z,16.82
2022-08-05T04:02:58.612Z,16.85
2022-08-05T04:04:32.210Z,16.90
2022-08-05T04:06:06.300Z,16.97
2022-08-05T04:07:51.394Z,16.98
2022-08-05T04:09:30.993Z,17.00
2022-08-05T04:11:09.949Z,17.05
2022-08-05T04:14:17.838Z,17.12
2022-08-05T04:16:03.243Z,17.23
2022-08-05T04:17:56.104Z,17.31
2022-08-05T04:19:30.051Z,17.41
2022-08-05T04:21:04.021Z,17.48
2022-08-05T04:22:36.200Z,17.55
2022-08-05T04:24:18.873Z,17.60
2022-08-05T04:25:57.372Z,17.60
2022-08-05T04:27:43.856Z,17.59
2022-08-05T04:29:25.327Z,17.54
2022-08-05T04:31:01.051Z,17.55
2022-08-05T04:32:33.587Z,17.56
2022-08-05T04:34:18.976Z,17.55
2022-08-05T04:36:11.394Z,17.61
2022-08-05T04:38:02.089Z,17.70
2022-08-05T04:39:39.165Z,17.82
2022-08-05T04:41:12.432Z,17.93
2022-08-05T04:42:45.668Z,18.06
2022-08-05T04:44:21.337Z,18.15
2022-08-05T04:46:02.095Z,18.26
2022-08-05T04:47:38.602Z,18.34
2022-08-05T04:49:15.036Z,18.44
2022-08-05T04:51:03.547Z,18.55
2022-08-05T04:52:41.225Z,18.65
2022-08-05T04:54:15.028Z,18.67
2022-08-05T04:56:33.408Z,18.71
2022-08-05T04:57:39.449Z,18.85
2022-08-05T04:59:22.205Z,18.94
2022-08-05T05:00:56.282Z,19.03
2022-08-05T05:02:37.255Z,19.10
2022-08-05T05:04:13.696Z,19.16
2022-08-05T05:06:39.071Z,19.23
2022-08-05T05:07:37.983Z,19.34
2022-08-05T05:09:18.439Z,19.44
2022-08-05T05:10:56.275Z,19.56
2022-08-05T05:12:29.450Z,19.66
2022-08-05T05:14:03.697Z,19.76
2022-08-05T05:15:56.953Z,19.82
2022-08-05T05:17:56.263Z,19.93
2022-08-05T05:19:23.694Z,20.05
2022-08-05T05:20:59.718Z,20.16
2022-08-05T05:22:32.428Z,20.25
2022-08-05T05:24:09.166Z,20.36
2022-08-05T05:25:42.546Z,20.47
2022-08-05T05:27:14.685Z,20.58
2022-08-05T05:28:49.484Z,20.70
2022-08-05T05:30:31.495Z,20.78
2022-08-05T05:32:06.072Z,20.93
2022-08-05T05:34:01.881Z,21.00
2022-08-05T05:35:39.618Z,21.10
2022-08-05T05:37:15.387Z,21.23
2022-08-05T05:38:47.873Z,21.37
2022-08-05T05:40:22.606Z,21.48
2022-08-05T05:41:58.282Z,21.62
2022-08-05T05:43:56.904Z,21.73
2022-08-05T05:45:24.790Z,21.78
2022-08-05T05:46:58.008Z,21.82
2022-08-05T05:48:30.388Z,21.89
2022-08-05T05:50:04.189Z,21.96
2022-08-05T05:51:49.738Z,22.02
2022-08-05T05:53:22.969Z,22.08
2022-08-05T05:54:55.371Z,22.14
2022-08-05T05:56:32.861Z,22.19
2022-08-05T05:58:06.349Z,22.23
2022-08-05T05:59:40.167Z,22.30
2022-08-05T06:01:15.294Z,22.38
2022-08-05T06:02:50.727Z,22.46
2022-08-05T06:04:22.884Z,22.50
2022-08-05T06:05:55.730Z,22.55
2022-08-05T06:07:42.139Z,22.65
2022-08-05T06:09:25.435Z,22.71
2022-08-05T06:11:08.468Z,22.80
2022-08-05T06:12:42.343Z,22.86
2022-08-05T06:14:14.540Z,22.93
2022-08-05T06:16:30.232Z,23.01
2022-08-05T06:17:52.725Z,23.08
2022-08-05T06:19:34.844Z,23.13
2022-08-05T06:21:07.948Z,23.19
2022-08-05T06:22:48.677Z,23.28
2022-08-05T06:24:25.865Z,23.36
2022-08-05T06:26:13.330Z,23.44
2022-08-05T06:28:10.480Z,23.53
2022-08-05T06:29:51.990Z,23.63
2022-08-05T06:31:34.719Z,23.74
2022-08-05T06:33:09.981Z,23.82
2022-08-05T06:34:43.010Z,23.90
2022-08-05T06:36:19.187Z,24.00
2022-08-05T06:37:59.533Z,24.08
2022-08-05T06:39:34.547Z,24.15
2022-08-05T06:41:08.259Z,24.24
2022-08-05T06:42:40.529Z,24.33
2022-08-05T06:44:12.699Z,24.39
2022-08-05T06:46:06.662Z,24.49
2022-08-05T06:48:36.959Z,24.65
2022-08-05T06:50:01.582Z,24.78
2022-08-05T06:51:29.600Z,24.92
2022-08-05T06:53:04.021Z,25.01
2022-08-05T06:54:43.396Z,25.09
2022-08-05T06:56:25.732Z,25.17
2022-08-05T06:58:11.589Z,25.27
2022-08-05T06:59:57.905Z,25.35
2022-08-05T07:01:32.273Z,25.44
2022-08-05T07:03:05.299Z,25.54
2022-08-05T07:04:41.783Z,25.61
2022-08-05T07:06:15.148Z,25.67
2022-08-05T07:07:49.317Z,25.73
2022-08-05T07:09:21.584Z,25.80
2022-08-05T07:10:57.051Z,25.90
2022-08-05T07:12:49.077Z,26.00
2022-08-05T07:14:40.145Z,26.13
2022-08-05T07:17:56.312Z,26.21
2022-08-05T07:18:27.420Z,26.31
2022-08-05T07:20:32.023Z,26.39
2022-08-05T07:21:59.454Z,26.45
2022-08-05T07:23:33.368Z,26.49
2022-08-05T07:25:23.685Z,26.60
2022-08-05T07:26:58.611Z,26.65
2022-08-05T07:28:31.513Z,26.74
2022-08-05T07:30:24.622Z,26.86
2022-08-05T07:31:56.078Z,26.93
2022-08-05T07:33:36.649Z,27.00
2022-08-05T07:36:03.567Z,27.07
2022-08-05T07:37:03.381Z,27.19
2022-08-05T07:38:42.813Z,27.28
2022-08-05T07:40:31.409Z,27.31
2022-08-05T07:42:14.193Z,27.37
2022-08-05T07:43:48.205Z,27.44
2022-08-05T07:45:31.143Z,27.56
2022-08-05T07:47:14.889Z,27.66
2022-08-05T07:49:02.776Z,27.73
2022-08-05T07:50:38.310Z,27.80
2022-08-05T07:52:11.242Z,27.82
2022-08-05T07:53:50.477Z,27.89
2022-08-05T07:55:44.245Z,27.95
2022-08-05T07:57:41.771Z,28.03
2022-08-05T07:59:10.533Z,28.12
2022-08-05T08:00:44.017Z,28.19
2022-08-05T08:02:18.151Z,28.25
2022-08-05T08:03:51.377Z,28.30
2022-08-05T08:05:23.677Z,28.35
2022-08-05T08:07:01.416Z,28.37
2022-08-05T08:08:37.876Z,28.41
2022-08-05T08:10:10.318Z,28.49
2022-08-05T08:11:54.291Z,28.52
2022-08-05T08:13:42.731Z,28.61
2022-08-05T08:16:33.988Z,28.64
2022-08-05T08:17:20.548Z,28.65
2022-08-05T08:18:54.124Z,28.71
2022-08-05T08:21:01.078Z,28.76
2022-08-05T08:22:19.768Z,28.80
2022-08-05T08:24:02.726Z,28.85
2022-08-05T08:25:59.233Z,28.93
2022-08-05T08:27:40.186Z,28.97
2022-08-05T08:29:45.203Z,29.02
2022-08-05T08:31:14.956Z,29.09
2022-08-05T08:32:49.738Z,29.14
2022-08-05T08:34:30.843Z,29.21
2022-08-05T08:36:38.331Z,29.28
2022-08-05T08:37:59.192Z,29.32
2022-08-05T08:39:32.312Z,29.37
2022-08-05T08:41:14.023Z,29.42
2022-08-05T08:42:52.470Z,29.51
2022-08-05T08:45:20.048Z,29.59
2022-08-05T08:46:18.513Z,29.67
2022-08-05T08:48:07.375Z,29.71
2022-08-05T08:50:23.196Z,29.75
2022-08-05T08:52:03.909Z,29.80
2022-08-05T08:53:37.808Z,29.87
2022-08-05T08:55:13.719Z,29.93
2022-08-05T08:56:52.292Z,30.00
2022-08-05T08:58:37.579Z,30.08
2022-08-05T09:00:19.428Z,30.12
2022-08-05T09:01:57.548Z,30.18
2022-08-05T09:03:44.970Z,30.24
2022-08-05T09:05:18.433Z,30.28
2022-08-05T09:07:19.455Z,30.33
2022-08-05T09:09:02.400Z,30.36
2022-08-05T09:10:34.535Z,30.40
2022-08-05T09:12:20.739Z,30.45
2022-08-05T09:14:54.378Z,30.44
2022-08-05T09:15:54.440Z,30.50
2022-08-05T09:17:40.478Z,30.51
2022-08-05T09:19:14.816Z,30.54
2022-08-05T09:20:47.578Z,30.57
2022-08-05T09:22:31.022Z,30.62
2022-08-05T09:24:06.833Z,30.69
2022-08-05T09:26:02.194Z,30.78
2022-08-05T09:28:03.779Z,30.81
2022-08-05T09:29:47.531Z,30.88
2022-08-05T09:32:08.513Z,30.93
2022-08-05T09:33:15.381Z,30.98
2022-08-05T09:34:55.989Z,30.99
2022-08-05T09:36:54.989Z,31.04
2022-08-05T09:38:32.119Z,31.11
2022-08-05T09:40:05.306Z,31.17
2022-08-05T09:42:12.722Z,31.26
2022-08-05T09:43:50.010Z,31.31
2022-08-05T09:46:07.887Z,31.37
2022-08-05T09:47:20.920Z,31.44
2022-08-05T09:49:06.533Z,31.47
2022-08-05T09:50:44.427Z,31.48
2022-08-05T09:52:27.931Z,31.46
2022-08-05T09:54:00.617Z,31.45
2022-08-05T09:55:57.297Z,31.55
2022-08-05T09:57:45.807Z,31.69
2022-08-05T09:59:27.638Z,31.73
2022-08-05T10:01:15.450Z,31.79
2022-08-05T10:02:58.634Z,31.82
2022-08-05T10:04:38.489Z,31.85
2022-08-05T10:06:14.733Z,31.90
2022-08-05T10:08:35.255Z,32.01
2022-08-05T10:10:13.832Z,32.13
2022-08-05T10:11:48.412Z,32.16
2022-08-05T10:13:54.774Z,32.25
2022-08-05T10:15:34.331Z,32.30
2022-08-05T10:17:37.168Z,32.37
2022-08-05T10:19:10.082Z,32.29
2022-08-05T10:20:51.163Z,32.31
2022-08-05T10:22:30.322Z,32.33
2022-08-05T10:24:10.829Z,32.32
2022-08-05T10:25:43.609Z,32.34
2022-08-05T10:27:16.855Z,32.35
2022-08-05T10:28:49.613Z,32.35
2022-08-05T10:31:19.944Z,32.42
2022-08-05T10:32:52.430Z,32.49
2022-08-05T10:34:08.651Z,32.51
2022-08-05T10:35:44.155Z,32.53
2022-08-05T10:37:17.174Z,32.61
2022-08-05T10:38:49.975Z,32.66
2022-08-05T10:40:35.851Z,32.56
2022-08-05T10:42:22.889Z,32.44
2022-08-05T10:44:09.529Z,32.29
2022-08-05T10:45:42.946Z,32.20
2022-08-05T10:47:26.614Z,32.08
2022-08-05T10:49:10.467Z,31.98
2022-08-05T10:50:59.745Z,31.98
2022-08-05T10:52:49.615Z,32.06
2022-08-05T10:54:28.881Z,32.19
2022-08-05T10:56:21.250Z,32.30
2022-08-05T10:58:08.563Z,32.53
2022-08-05T11:00:03.676Z,32.60
2022-08-05T11:01:54.082Z,32.67
2022-08-05T11:03:31.100Z,32.64
2022-08-05T11:05:10.629Z,32.64
2022-08-05T11:07:01.498Z,32.66
2022-08-05T11:08:37.892Z,32.61
2022-08-05T11:10:22.874Z,32.47
2022-08-05T11:12:00.293Z,32.42
2022-08-05T11:13:55.113Z,32.35
2022-08-05T11:15:59.498Z,32.28
2022-08-05T11:17:57.478Z,32.34
2022-08-05T11:20:17.018Z,32.39
2022-08-05T11:21:40.863Z,32.49
2022-08-05T11:24:03.876Z,32.58
2022-08-05T11:26:05.418Z,32.64
2022-08-05T11:27:51.000Z,32.70
2022-08-05T11:29:41.451Z,32.82
2022-08-05T11:31:19.642Z,32.87
2022-08-05T11:33:46.016Z,33.00
2022-08-05T11:36:07.731Z,33.08
2022-08-05T11:38:26.111Z,33.14
2022-08-05T11:40:00.211Z,33.28
2022-08-05T11:41:56.236Z,33.26
2022-08-05T11:44:00.999Z,33.31
2022-08-05T11:46:15.594Z,33.47
2022-08-05T11:47:21.762Z,33.55
2022-08-05T11:48:55.957Z,33.67
2022-08-05T11:50:29.315Z,33.78
2022-08-05T11:52:02.107Z,33.78
2022-08-05T11:53:44.203Z,33.64
2022-08-05T11:55:17.473Z,33.47
2022-08-05T11:56:54.755Z,33.38
2022-08-05T11:58:34.841Z,33.25
2022-08-05T12:00:30.289Z,33.05
2022-08-05T12:02:07.305Z,32.93
2022-08-05T12:03:57.573Z,32.73
2022-08-05T12:05:36.132Z,32.59
2022-08-05T12:07:19.352Z,32.47
2022-08-05T12:09:11.826Z,32.30
2022-08-05T12:10:52.755Z,32.19
2022-08-05T12:12:28.252Z,32.14
2022-08-05T12:14:04.111Z,32.11
2022-08-05T12:15:38.685Z,32.11
2022-08-05T12:18:00.756Z,32.19
2022-08-05T12:19:08.287Z,32.38
2022-08-05T12:20:40.832Z,32.51
2022-08-05T12:22:14.226Z,32.72
2022-08-05T12:24:11.181Z,32.91
2022-08-05T12:25:56.977Z,33.12
2022-08-05T12:27:34.507Z,33.23
2022-08-05T12:29:23.517Z,33.31
2022-08-05T12:30:58.129Z,33.35
2022-08-05T12:32:46.391Z,33.46
2022-08-05T12:34:35.723Z,33.46
2022-08-05T12:36:09.669Z,33.53
2022-08-05T12:37:42.990Z,33.54
2022-08-05T12:39:16.245Z,33.45
2022-08-05T12:40:48.796Z,33.36
2022-08-05T12:42:25.292Z,33.23
2022-08-05T12:43:59.948Z,33.03
2022-08-05T12:45:42.610Z,32.79
2022-08-05T12:47:30.669Z,32.80
2022-08-05T12:49:12.991Z,32.86
2022-08-05T12:52:10.353Z,32.80
2022-08-05T12:53:07.468Z,32.79
2022-08-05T12:54:42.345Z,32.82
2022-08-05T12:56:35.092Z,32.87
2022-08-05T12:58:50.751Z,32.87
2022-08-05T13:01:57.318Z,32.93
2022-08-05T13:02:09.782Z,33.04
2022-08-05T13:03:45.485Z,33.06
2022-08-05T13:05:21.004Z,33.11
2022-08-05T13:06:56.576Z,33.11
2022-08-05T13:08:33.053Z,33.21
2022-08-05T13:10:11.342Z,33.32
2022-08-05T13:12:01.553Z,33.36
2022-08-05T13:14:06.171Z,33.54
2022-08-05T13:15:42.185Z,33.67
2022-08-05T13:17:31.767Z,33.80
2022-08-05T13:19:16.087Z,33.82
2022-08-05T13:20:49.889Z,33.90
2022-08-05T13:22:28.002Z,33.98
2022-08-05T13:24:02.274Z,34.05
2022-08-05T13:25:52.172Z,34.09
2022-08-05T13:27:37.267Z,34.12
2022-08-05T13:29:11.253Z,34.02
2022-08-05T13:30:53.465Z,33.89
2022-08-05T13:32:33.094Z,33.72
2022-08-05T13:34:21.507Z,33.56
2022-08-05T13:35:56.255Z,33.38
2022-08-05T13:37:35.205Z,33.24
2022-08-05T13:39:24.608Z,33.14
2022-08-05T13:41:00.803Z,32.97
2022-08-05T13:42:36.032Z,32.84
2022-08-05T13:44:08.531Z,32.71
2022-08-05T13:45:43.247Z,32.55
2022-08-05T13:47:34.938Z,32.49
2022-08-05T13:49:10.512Z,32.43
2022-08-05T13:50:44.410Z,32.41
2022-08-05T13:52:29.376Z,32.46
2022-08-05T13:54:02.118Z,32.53
2022-08-05T13:55:41.733Z,32.61
2022-08-05T13:57:22.683Z,32.74
2022-08-05T13:58:56.997Z,32.84
2022-08-05T14:00:38.530Z,32.94
2022-08-05T14:02:19.868Z,33.06
2022-08-05T14:04:10.773Z,33.13
2022-08-05T14:06:04.721Z,33.24
2022-08-05T14:08:00.881Z,33.40
2022-08-05T14:09:31.383Z,33.46
2022-08-05T14:11:20.283Z,33.55
2022-08-05T14:12:54.582Z,33.62
2022-08-05T14:14:32.315Z,33.65
2022-08-05T14:16:11.405Z,33.73
2022-08-05T14:17:45.155Z,33.71
2022-08-05T14:19:20.504Z,33.78
2022-08-05T14:20:55.467Z,33.82
2022-08-05T14:22:30.259Z,33.87
2022-08-05T14:24:09.422Z,33.94
2022-08-05T14:25:45.100Z,33.98
2022-08-05T14:27:18.530Z,34.04
2022-08-05T14:30:36.847Z,34.18
2022-08-05T14:32:12.878Z,34.21
2022-08-05T14:33:59.529Z,34.23
2022-08-05T14:35:36.224Z,34.21
2022-08-05T14:37:22.266Z,34.17
2022-08-05T14:38:55.239Z,34.18
2022-08-05T14:40:27.871Z,34.10
2022-08-05T14:42:19.256Z,34.10
2022-08-05T14:44:01.780Z,34.10
2022-08-05T14:45:41.749Z,34.09
2022-08-05T14:47:14.262Z,34.04
2022-08-05T14:48:49.165Z,34.00
2022-08-05T14:50:22.485Z,33.99
2022-08-05T14:51:57.702Z,34.00
2022-08-05T14:53:30.511Z,34.02
2022-08-05T14:55:02.949Z,34.00
2022-08-05T14:56:35.674Z,34.04
2022-08-05T14:58:13.869Z,34.00
2022-08-05T14:59:46.538Z,33.99
2022-08-05T15:01:47.064Z,33.97
2022-08-05T15:03:14.144Z,33.95
2022-08-05T15:04:47.769Z,33.90
2022-08-05T15:06:27.973Z,33.86
2022-08-05T15:08:11.269Z,33.83
2022-08-05T15:09:51.790Z,33.81
2022-08-05T15:11:51.117Z,33.80
2022-08-05T15:13:19.401Z,33.81
2022-08-05T15:15:00.738Z,33.78
2022-08-05T15:16:34.131Z,33.74
2022-08-05T15:18:08.071Z,33.74
2022-08-05T15:19:40.876Z,33.69
2022-08-05T15:21:21.574Z,33.62
2022-08-05T15:22:56.816Z,33.57
2022-08-05T15:24:29.815Z,33.56
2022-08-05T15:26:03.060Z,33.55
2022-08-05T15:27:36.037Z,33.51
2022-08-05T15:29:08.290Z,33.53
2022-08-05T15:30:40.805Z,33.44
2022-08-05T15:32:16.484Z,33.40
2022-08-05T15:34:05.507Z,33.36
2022-08-05T15:35:41.556Z,33.31
2022-08-05T15:38:08.410Z,33.29
2022-08-05T15:40:59.811Z,33.23
2022-08-05T15:41:23.160Z,33.19
2022-08-05T15:43:00.645Z,33.17
2022-08-05T15:44:42.206Z,33.12
2022-08-05T15:46:14.576Z,33.09
2022-08-05T15:47:48.178Z,33.06
2022-08-05T15:49:27.324Z,33.02
2022-08-05T15:51:12.740Z,32.96
2022-08-05T15:52:52.799Z,32.89
2022-08-05T15:54:34.564Z,32.78
2022-08-05T15:56:11.571Z,32.75
2022-08-05T15:57:49.001Z,32.69
2022-08-05T15:59:22.206Z,32.65
2022-08-05T16:01:04.434Z,32.63
2022-08-05T16:02:47.505Z,32.59
2022-08-05T16:04:19.898Z,32.54
2022-08-05T16:05:55.821Z,32.53
2022-08-05T16:07:29.373Z,32.49
2022-08-05T16:09:02.409Z,32.47
2022-08-05T16:10:34.815Z,32.46
2022-08-05T16:12:08.375Z,32.43
2022-08-05T16:13:40.737Z,32.41
2022-08-05T16:15:18.151Z,32.37
2022-08-05T16:16:51.283Z,32.33
2022-08-05T16:18:28.968Z,32.27
2022-08-05T16:20:04.583Z,32.21
2022-08-05T16:22:01.113Z,32.16
2022-08-05T16:23:53.735Z,32.10
2022-08-05T16:25:32.314Z,32.01
2022-08-05T16:27:07.347Z,31.97
2022-08-05T16:28:41.230Z,31.89
2022-08-05T16:30:25.582Z,31.83
2022-08-05T16:31:58.650Z,31.76
2022-08-05T16:33:41.394Z,31.70
2022-08-05T16:35:14.204Z,31.71
2022-08-05T16:36:49.029Z,31.67
2022-08-05T16:38:25.523Z,31.67
2022-08-05T16:40:05.702Z,31.68
2022-08-05T16:42:14.867Z,31.69
2022-08-05T16:43:35.244Z,31.69
2022-08-05T16:46:04.521Z,31.64
2022-08-05T16:47:00.438Z,31.60
2022-08-05T16:48:33.244Z,31.52
2022-08-05T16:50:07.208Z,31.39
2022-08-05T16:51:42.821Z,31.27
2022-08-05T16:53:32.363Z,31.16
2022-08-05T16:55:15.784Z,31.05
2022-08-05T16:56:48.206Z,30.99
2022-08-05T16:58:24.899Z,30.97
2022-08-05T17:00:02.959Z,30.95
2022-08-05T17:01:54.364Z,30.93
2022-08-05T17:03:28.056Z,30.82
2022-08-05T17:05:03.621Z,30.68
2022-08-05T17:06:36.321Z,30.53
2022-08-05T17:08:14.399Z,30.35
2022-08-05T17:10:06.944Z,30.19
2022-08-05T17:11:48.435Z,30.05
2022-08-05T17:13:37.375Z,29.94
2022-08-05T17:15:15.778Z,29.82
2022-08-05T17:16:53.869Z,29.71
2022-08-05T17:18:26.278Z,29.62
2022-08-05T17:19:58.532Z,29.57
2022-08-05T17:21:35.639Z,29.50
2022-08-05T17:23:09.112Z,29.44
2022-08-05T17:25:01.584Z,29.40
2022-08-05T17:26:42.225Z,29.36
2022-08-05T17:28:16.051Z,29.26
2022-08-05T17:29:52.783Z,29.18
2022-08-05T17:31:57.147Z,29.08
2022-08-05T17:33:25.403Z,28.93
2022-08-05T17:34:58.222Z,28.80
2022-08-05T17:36:31.736Z,28.70
2022-08-05T17:38:08.768Z,28.57
2022-08-05T17:39:41.446Z,28.43
2022-08-05T17:42:16.814Z,28.31
2022-08-05T17:43:10.189Z,28.22
2022-08-05T17:44:42.793Z,28.16
2022-08-05T17:46:24.155Z,28.08
2022-08-05T17:47:56.455Z,27.98
2022-08-05T17:49:28.836Z,27.82
2022-08-05T17:51:21.862Z,27.66
2022-08-05T17:52:55.033Z,27.54
2022-08-05T17:54:27.273Z,27.40
2022-08-05T17:56:00.311Z,27.25
2022-08-05T17:57:35.134Z,27.12
2022-08-05T17:59:10.300Z,27.03
2022-08-05T18:00:47.588Z,26.93
2022-08-05T18:02:23.363Z,26.84
2022-08-05T18:04:04.184Z,26.77
2022-08-05T18:05:39.477Z,26.70
2022-08-05T18:07:12.767Z,26.66
2022-08-05T18:08:52.321Z,26.58
2022-08-05T18:10:24.907Z,26.49
2022-08-05T18:11:58.219Z,26.40
2022-08-05T18:13:36.858Z,26.32
2022-08-05T18:15:16.814Z,26.20
2022-08-05T18:16:52.000Z,26.09
2022-08-05T18:18:26.326Z,25.99
2022-08-05T18:19:59.148Z,25.86
2022-08-05T18:22:08.864Z,25.81
2022-08-05T18:23:24.019Z,25.70
2022-08-05T18:25:02.635Z,25.62
2022-08-05T18:26:35.052Z,25.52
2022-08-05T18:28:10.709Z,25.45
2022-08-05T18:29:43.049Z,25.34
2022-08-05T18:31:24.357Z,25.29
2022-08-05T18:33:01.061Z,25.19
2022-08-05T18:34:40.840Z,25.11
2022-08-05T18:36:15.299Z,25.03
2022-08-05T18:37:48.333Z,24.93
2022-08-05T18:39:42.517Z,24.88
2022-08-05T18:42:00.685Z,24.80
2022-08-05T18:43:05.712Z,24.68
2022-08-05T18:44:49.261Z,24.58
2022-08-05T18:46:29.074Z,24.48
2022-08-05T18:48:01.587Z,24.37
2022-08-05T18:49:58.334Z,24.34
2022-08-05T18:52:05.769Z,24.27
2022-08-05T18:53:45.893Z,24.20
2022-08-05T18:55:22.747Z,24.14
2022-08-05T18:56:54.956Z,24.06
2022-08-05T18:58:29.595Z,23.96
2022-08-05T19:00:11.795Z,23.88
2022-08-05T19:01:57.046Z,23.79
2022-08-05T19:03:52.731Z,23.75
2022-08-05T19:06:13.455Z,23.74
2022-08-05T19:07:16.423Z,23.69
2022-08-05T19:08:48.990Z,23.63
2022-08-05T19:10:26.619Z,23.59
2022-08-05T19:12:01.618Z,23.55
2022-08-05T19:13:35.931Z,23.49
2022-08-05T19:15:25.245Z,23.42
2022-08-05T19:17:03.217Z,23.37
2022-08-05T19:18:39.644Z,23.28
2022-08-05T19:20:13.100Z,23.25
2022-08-05T19:21:47.971Z,23.17
2022-08-05T19:24:05.952Z,23.12
2022-08-05T19:25:21.610Z,23.07
2022-08-05T19:27:04.427Z,23.01
2022-08-05T19:28:43.317Z,22.97
2022-08-05T19:30:16.503Z,22.92
2022-08-05T19:31:52.990Z,22.87
2022-08-05T19:33:35.937Z,22.82
2022-08-05T19:35:09.264Z,22.82
2022-08-05T19:36:42.524Z,22.76
2022-08-05T19:38:14.658Z,22.70
2022-08-05T19:39:50.961Z,22.65
2022-08-05T19:41:58.323Z,22.58
2022-08-05T19:44:03.855Z,22.51
2022-08-05T19:45:08.847Z,22.45
2022-08-05T19:46:47.111Z,22.39
2022-08-05T19:48:22.428Z,22.35
2022-08-05T19:49:57.481Z,22.29
2022-08-05T19:52:04.644Z,22.23
2022-08-05T19:54:04.676Z,22.18
2022-08-05T19:56:15.599Z,22.14
2022-08-05T19:57:08.691Z,22.11
2022-08-05T19:58:53.563Z,22.05
2022-08-05T20:00:27.429Z,21.99
2022-08-05T20:02:01.850Z,21.95
2022-08-05T20:03:40.684Z,21.88
2022-08-05T20:05:16.582Z,21.85
2022-08-05T20:06:56.969Z,21.88
2022-08-05T20:08:30.812Z,21.84
2022-08-05T20:10:13.626Z,21.82
2022-08-05T20:11:48.045Z,21.76
2022-08-05T20:13:30.022Z,21.69
2022-08-05T20:15:13.250Z,21.58
2022-08-05T20:16:47.272Z,21.50
2022-08-05T20:18:32.735Z,21.44
2022-08-05T20:20:09.530Z,21.38
2022-08-05T20:21:43.793Z,21.32
2022-08-05T20:23:17.029Z,21.28
2022-08-05T20:24:57.108Z,21.25
2022-08-05T20:26:33.274Z,21.21
2022-08-05T20:28:14.533Z,21.23
2022-08-05T20:29:57.803Z,21.21
2022-08-05T20:31:42.044Z,21.21
2022-08-05T20:33:16.015Z,21.21
2022-08-05T20:34:48.333Z,21.21
2022-08-05T20:36:21.966Z,21.19
2022-08-05T20:38:07.866Z,21.15
2022-08-05T20:39:41.206Z,21.11
2022-08-05T20:41:24.119Z,21.08
2022-08-05T20:43:00.683Z,21.03
2022-08-05T20:44:37.724Z,20.98
2022-08-05T20:46:12.488Z,20.96
2022-08-05T20:47:50.909Z,20.96
2022-08-05T20:49:25.917Z,20.97
2022-08-05T20:50:58.597Z,20.97
2022-08-05T20:52:42.226Z,20.96
2022-08-05T20:54:14.664Z,20.93
2022-08-05T20:55:56.276Z,20.92
2022-08-05T20:57:43.762Z,20.91
2022-08-05T20:59:26.557Z,20.87
2022-08-05T21:00:59.399Z,20.84
2022-08-05T21:02:37.415Z,20.79
2022-08-05T21:04:12.884Z,20.75
2022-08-05T21:05:53.666Z,20.68
2022-08-05T21:07:26.950Z,20.61
2022-08-05T21:09:19.057Z,20.56
2022-08-05T21:10:52.205Z,20.54
2022-08-05T21:12:26.026Z,20.49
2022-08-05T21:13:58.924Z,20.45
2022-08-05T21:15:33.738Z,20.41
2022-08-05T21:17:06.990Z,20.39
2022-08-05T21:18:39.053Z,20.36
2022-08-05T21:20:15.199Z,20.34
2022-08-05T21:22:05.689Z,20.33
2022-08-05T21:23:41.588Z,20.28
2022-08-05T21:25:13.766Z,20.24
2022-08-05T21:26:53.388Z,20.18
2022-08-05T21:28:30.882Z,20.15
2022-08-05T21:30:03.970Z,20.13
2022-08-05T21:31:41.349Z,20.13
2022-08-05T21:33:21.971Z,20.10
2022-08-05T21:35:16.756Z,20.08
2022-08-05T21:36:49.085Z,20.05
2022-08-05T21:38:21.263Z,20.02
2022-08-05T21:39:53.746Z,19.99
2022-08-05T21:41:33.746Z,19.94
2022-08-05T21:43:06.569Z,19.91
2022-08-05T21:44:40.395Z,19.87
2022-08-05T21:46:12.717Z,19.85
2022-08-05T21:47:56.502Z,19.85
2022-08-05T21:49:56.528Z,19.86
2022-08-05T21:51:25.252Z,19.88
2022-08-05T21:53:17.743Z,19.89
2022-08-05T21:54:51.283Z,19.87
2022-08-05T21:56:27.276Z,19.84
2022-08-05T21:57:59.350Z,19.80
2022-08-05T21:59:48.182Z,19.76
2022-08-05T22:01:24.177Z,19.76
2022-08-05T22:02:58.301Z,19.75
2022-08-05T22:04:30.225Z,19.77
2022-08-05T22:06:02.286Z,19.72
2022-08-05T22:07:39.818Z,19.70
2022-08-05T22:09:45.971Z,19.70
2022-08-05T22:11:34.505Z,19.67
2022-08-05T22:13:08.779Z,19.65
2022-08-05T22:14:59.966Z,19.66
2022-08-05T22:16:41.866Z,19.64
2022-08-05T22:18:25.654Z,19.61
2022-08-05T22:20:02.893Z,19.58
2022-08-05T22:21:46.198Z,19.54
2022-08-05T22:24:01.993Z,19.51
2022-08-05T22:26:10.306Z,19.49
2022-08-05T22:28:10.861Z,19.48